Time;durP1;ratioP1;P1;durP2;ratioP2;P2;SDS_P1;SDS_P2;PMS_P1;PMS_P2;Temp;Humidity;BMP_temperature;BMP_pressure;BME280_temperature;BME280_humidity;BME280_pressure;Samples;Min_cycle;Max_cycle;Signal;HPM_P1;HPM_P2
2023/05/12 00:04:07;;;;;;;3.15;1.38;;;17.50;96.70;;;;;;4960220;28;20629;-72
2023/05/12 00:06:36;;;;;;;6.68;1.17;;;17.60;96.70;;;;;;4961075;28;20042;-73
2023/05/12 00:09:05;;;;;;;2.65;1.05;;;17.60;96.70;;;;;;4961918;28;20043;-72
2023/05/12 00:11:33;;;;;;;2.67;1.25;;;17.70;96.70;;;;;;4958395;28;20469;-73
2023/05/12 00:14:01;;;;;;;2.08;1.17;;;17.70;96.70;;;;;;4960251;28;20516;-72
2023/05/12 00:16:30;;;;;;;1.55;0.90;;;17.60;96.70;;;;;;4961706;28;20070;-72
2023/05/12 00:18:58;;;;;;;3.03;1.50;;;17.60;96.70;;;;;;4957831;28;20488;-72
2023/05/12 00:21:28;;;;;;;3.28;1.58;;;17.60;96.70;;;;;;4960544;28;20042;-73
2023/05/12 00:36:31;;;;;;;2.40;1.08;;;17.70;96.70;;;;;;4960140;28;20150;-72
2023/05/12 00:39:00;;;;;;;5.13;1.23;;;17.70;96.70;;;;;;4962178;28;20156;-73
2023/05/12 00:41:28;;;;;;;5.85;1.70;;;17.70;96.70;;;;;;4960987;28;20129;-72
2023/05/12 00:43:56;;;;;;;2.88;1.05;;;17.60;96.70;;;;;;4961532;28;20485;-73
2023/05/12 01:15:57;;;;;;;1.83;1.10;;;17.00;96.70;;;;;;4961978;28;20429;-72
2023/05/12 01:18:27;;;;;;;5.97;1.35;;;16.80;96.70;;;;;;4962244;28;20063;-72
2023/05/12 01:20:56;;;;;;;3.75;1.30;;;16.80;96.70;;;;;;4963436;28;20055;-72
2023/05/12 01:23:33;;;;;;;5.32;1.55;;;16.90;96.70;;;;;;4963816;28;20170;-73
2023/05/12 01:30:18;;;;;;;2.28;1.40;;;16.80;96.70;;;;;;4964623;28;20041;-72
2023/05/12 01:32:47;;;;;;;2.53;1.33;;;16.70;96.70;;;;;;4965242;28;20043;-72
2023/05/12 01:35:17;;;;;;;5.05;1.80;;;16.70;96.70;;;;;;4963392;28;20716;-72
2023/05/12 01:37:57;;;;;;;2.47;1.27;;;16.50;96.70;;;;;;4965125;28;20055;-72
2023/05/12 01:40:25;;;;;;;1.83;1.30;;;16.50;96.70;;;;;;4963491;28;20508;-72
2023/05/12 01:42:55;;;;;;;2.38;1.77;;;16.50;96.70;;;;;;4963560;28;20055;-72
2023/05/12 02:40:19;;;;;;;7.72;1.90;;;16.40;96.70;;;;;;4957196;28;20081;-72
2023/05/12 02:42:48;;;;;;;3.72;1.83;;;16.40;96.70;;;;;;4960018;28;20074;-71
2023/05/12 02:45:18;;;;;;;5.82;1.80;;;16.30;96.70;;;;;;4963978;28;20030;-71
2023/05/12 02:47:47;;;;;;;4.70;1.58;;;16.30;96.70;;;;;;4962706;28;20061;-72
2023/05/12 02:50:16;;;;;;;3.92;1.40;;;16.30;96.70;;;;;;4961706;28;20049;-73
2023/05/12 02:52:44;;;;;;;5.22;1.70;;;16.30;96.70;;;;;;4961541;28;20074;-72
2023/05/12 02:55:13;;;;;;;2.88;1.73;;;16.30;96.70;;;;;;4962671;28;20054;-73
2023/05/12 02:57:56;;;;;;;4.82;1.70;;;16.40;96.70;;;;;;4962111;28;20145;-72
2023/05/12 03:00:26;;;;;;;4.25;1.45;;;16.50;96.70;;;;;;4964335;28;20050;-71
2023/05/12 03:03:07;;;;;;;2.33;1.27;;;16.50;96.70;;;;;;4962258;28;20043;-71
2023/05/12 03:05:41;;;;;;;4.82;1.85;;;16.60;96.70;;;;;;4961639;28;20046;-71
2023/05/12 03:08:10;;;;;;;2.88;1.50;;;16.60;96.70;;;;;;4928507;28;20065;-72
2023/05/12 04:01:30;;;;;;;4.85;1.70;;;16.20;96.70;;;;;;4931231;28;20122;-72
2023/05/12 04:04:01;;;;;;;1.83;1.38;;;16.20;96.70;;;;;;4959621;28;20134;-72
2023/05/12 04:06:30;;;;;;;2.83;2.08;;;16.20;96.70;;;;;;4962196;28;20057;-72
2023/05/12 04:08:58;;;;;;;4.47;1.83;;;16.10;96.70;;;;;;4960351;28;20050;-72
2023/05/12 04:45:30;;;;;;;2.53;1.55;;;16.30;96.70;;;;;;4961823;28;20417;-73
2023/05/12 04:47:59;;;;;;;3.03;1.35;;;16.30;96.70;;;;;;4963184;28;20477;-72
2023/05/12 04:50:27;;;;;;;3.70;1.38;;;16.50;96.70;;;;;;4961979;28;20122;-72
2023/05/12 04:52:56;;;;;;;5.10;1.65;;;16.50;96.70;;;;;;4965178;28;20042;-72
2023/05/12 04:55:24;;;;;;;3.45;1.40;;;16.50;96.70;;;;;;4964228;28;20054;-72
2023/05/12 04:57:52;;;;;;;4.32;1.65;;;16.60;96.70;;;;;;4964593;28;20051;-72
2023/05/12 05:00:21;;;;;;;5.70;1.98;;;16.70;96.70;;;;;;4964048;28;20057;-71
2023/05/12 05:02:51;;;;;;;1.75;0.93;;;16.70;96.70;;;;;;4961771;28;20450;-72
2023/05/12 05:05:20;;;;;;;2.85;1.38;;;16.80;96.70;;;;;;4962552;28;20057;-72
2023/05/12 05:07:49;;;;;;;2.08;1.02;;;16.80;96.70;;;;;;4966039;28;20089;-72
2023/05/12 05:10:17;;;;;;;2.17;1.15;;;16.90;96.70;;;;;;4964078;28;20509;-72
2023/05/12 05:12:46;;;;;;;3.60;1.23;;;16.80;96.70;;;;;;4961610;28;20058;-72
2023/05/12 05:15:15;;;;;;;4.80;1.20;;;16.80;96.70;;;;;;4963393;28;21421;-72
2023/05/12 05:17:47;;;;;;;4.03;1.75;;;16.80;96.70;;;;;;4966511;28;20054;-72
2023/05/12 05:20:19;;;;;;;4.28;1.05;;;16.80;96.70;;;;;;4948388;28;20054;-72
2023/05/12 05:22:48;;;;;;;2.60;1.05;;;16.90;96.70;;;;;;4966046;28;20070;-72
2023/05/12 05:25:17;;;;;;;3.35;1.15;;;17.00;96.70;;;;;;4949303;28;21072;-72
2023/05/12 05:27:46;;;;;;;4.38;1.20;;;17.00;96.70;;;;;;4963584;28;21546;-72
2023/05/12 05:30:14;;;;;;;4.82;1.38;;;17.00;96.70;;;;;;4962980;28;20043;-73
2023/05/12 05:32:43;;;;;;;2.92;1.20;;;17.10;96.70;;;;;;4965373;28;20587;-72
2023/05/12 05:35:12;;;;;;;5.65;1.40;;;17.20;96.70;;;;;;4981412;28;20050;-72
2023/05/12 05:37:47;;;;;;;4.70;1.30;;;17.30;96.70;;;;;;4964105;28;20070;-72
2023/05/12 05:40:15;;;;;;;4.05;1.67;;;17.30;96.70;;;;;;4962966;28;20078;-72
2023/05/12 05:42:44;;;;;;;4.07;1.63;;;17.30;96.70;;;;;;4961983;28;20034;-72
2023/05/12 05:45:13;;;;;;;3.65;1.63;;;17.20;96.70;;;;;;4963139;28;20054;-72
2023/05/12 05:47:41;;;;;;;5.00;1.92;;;17.30;96.70;;;;;;4963823;28;20066;-72
2023/05/12 05:50:11;;;;;;;5.53;1.83;;;17.40;96.70;;;;;;4947091;28;20165;-72
2023/05/12 05:52:41;;;;;;;6.75;1.23;;;17.40;96.70;;;;;;4963586;28;20416;-72
2023/05/12 05:55:11;;;;;;;3.88;1.70;;;17.40;96.70;;;;;;4961491;28;20046;-73
2023/05/12 05:57:39;;;;;;;3.60;1.30;;;17.50;96.70;;;;;;4963528;28;20050;-72
2023/05/12 06:00:09;;;;;;;4.10;1.05;;;17.60;96.70;;;;;;4963834;28;20047;-72
2023/05/12 06:02:40;;;;;;;3.42;1.13;;;17.70;96.70;;;;;;4962188;28;20105;-72
2023/05/12 06:05:11;;;;;;;3.83;1.20;;;17.80;96.70;;;;;;4963774;28;20046;-72
2023/05/12 06:07:42;;;;;;;4.00;1.70;;;17.90;96.70;;;;;;4964365;28;20046;-73
2023/05/12 06:10:12;;;;;;;3.30;1.25;;;18.00;96.70;;;;;;4961356;28;20047;-72
2023/05/12 06:12:41;;;;;;;4.68;1.52;;;17.90;96.70;;;;;;4964471;28;20039;-73
2023/05/12 06:15:11;;;;;;;3.13;1.20;;;18.00;96.70;;;;;;4963649;28;20054;-73
2023/05/12 06:17:39;;;;;;;4.28;1.38;;;18.10;96.70;;;;;;4964540;28;20038;-72
2023/05/12 06:20:09;;;;;;;5.65;1.63;;;18.10;96.70;;;;;;4962378;28;20079;-72
2023/05/12 06:22:37;;;;;;;6.30;1.40;;;18.20;96.70;;;;;;4963553;28;20082;-73
2023/05/12 06:25:07;;;;;;;4.75;1.40;;;18.10;96.70;;;;;;4963651;28;20049;-72
2023/05/12 06:27:37;;;;;;;4.18;1.52;;;18.20;96.70;;;;;;4964827;28;20050;-72
2023/05/12 06:30:07;;;;;;;4.93;1.42;;;18.20;96.70;;;;;;4962697;28;20497;-73
2023/05/12 06:32:36;;;;;;;6.07;1.70;;;18.20;96.70;;;;;;4963202;28;20043;-72
2023/05/12 06:35:06;;;;;;;2.90;1.20;;;18.30;96.70;;;;;;4962355;28;20039;-73
2023/05/12 06:37:35;;;;;;;3.05;1.25;;;18.30;96.70;;;;;;4970391;28;20121;-72
2023/05/12 06:40:04;;;;;;;5.68;1.23;;;18.20;96.70;;;;;;4959815;28;20378;-73
2023/05/12 06:42:33;;;;;;;4.10;1.30;;;18.30;96.70;;;;;;4965871;28;20039;-74
2023/05/12 06:45:11;;;;;;;3.45;1.42;;;18.40;96.70;;;;;;4960244;28;20699;-73
2023/05/12 06:47:40;;;;;;;3.65;0.93;;;18.40;96.70;;;;;;4962059;28;20129;-73
2023/05/12 06:50:09;;;;;;;4.25;1.10;;;18.40;96.70;;;;;;4965292;28;20418;-73
2023/05/12 06:52:37;;;;;;;5.60;1.40;;;18.40;96.70;;;;;;4966097;28;20564;-72
2023/05/12 06:55:06;;;;;;;4.28;1.52;;;18.40;96.70;;;;;;4963025;28;20060;-71
2023/05/12 06:57:35;;;;;;;9.00;1.55;;;18.40;96.70;;;;;;4960750;28;20408;-72
2023/05/12 07:00:03;;;;;;;5.22;1.55;;;18.50;96.70;;;;;;4964001;28;20043;-71
2023/05/12 07:02:34;;;;;;;5.80;1.73;;;18.50;96.70;;;;;;4964788;28;20485;-73
2023/05/12 07:05:02;;;;;;;4.45;1.75;;;18.50;96.70;;;;;;4963952;28;20865;-72
2023/05/12 07:07:30;;;;;;;3.85;1.30;;;18.70;96.70;;;;;;4965401;28;20075;-74
2023/05/12 07:09:59;;;;;;;4.28;1.23;;;18.70;96.70;;;;;;4963016;28;20043;-72
2023/05/12 07:12:27;;;;;;;3.38;1.58;;;18.70;96.70;;;;;;4964923;28;20065;-73
2023/05/12 07:14:56;;;;;;;4.65;1.48;;;18.80;96.70;;;;;;4962010;28;20551;-73
2023/05/12 07:17:24;;;;;;;6.85;1.90;;;18.80;96.70;;;;;;4963686;28;20046;-73
2023/05/12 07:19:55;;;;;;;6.35;2.05;;;18.90;96.70;;;;;;4958449;28;20066;-73
2023/05/12 07:22:23;;;;;;;6.35;1.42;;;18.90;96.70;;;;;;4963463;28;20047;-73
2023/05/12 07:24:52;;;;;;;4.15;1.55;;;19.00;96.70;;;;;;4960652;28;20556;-73
2023/05/12 07:27:21;;;;;;;3.92;1.50;;;19.10;96.70;;;;;;4965157;28;21214;-74
2023/05/12 07:29:49;;;;;;;5.95;2.00;;;19.10;96.70;;;;;;4962735;28;20039;-74
2023/05/12 07:32:17;;;;;;;3.80;1.88;;;19.10;96.70;;;;;;4963535;28;20467;-74
2023/05/12 07:34:46;;;;;;;5.53;1.35;;;19.00;96.70;;;;;;4965282;28;20504;-74
2023/05/12 07:37:16;;;;;;;5.32;1.20;;;19.10;96.70;;;;;;4963598;28;20061;-73
2023/05/12 07:39:44;;;;;;;5.00;1.35;;;19.10;96.70;;;;;;4954091;28;20054;-74
2023/05/12 07:42:12;;;;;;;4.82;1.52;;;19.20;96.70;;;;;;4958001;28;20109;-74
2023/05/12 07:44:41;;;;;;;4.07;1.42;;;19.20;96.70;;;;;;4963436;28;20035;-73
2023/05/12 07:47:10;;;;;;;3.53;1.20;;;19.20;96.70;;;;;;4963417;28;20663;-73
2023/05/12 07:49:38;;;;;;;4.80;1.52;;;19.20;96.70;;;;;;4947370;28;20046;-72
2023/05/12 07:52:06;;;;;;;6.20;2.08;;;19.10;96.70;;;;;;4963838;28;20055;-73
2023/05/12 07:54:36;;;;;;;6.10;1.55;;;19.30;96.70;;;;;;4963069;28;20050;-73
2023/05/12 07:57:05;;;;;;;4.28;1.67;;;19.30;96.70;;;;;;4964568;28;20105;-74
2023/05/12 07:59:33;;;;;;;7.10;1.52;;;19.40;96.70;;;;;;4963265;28;20095;-73
2023/05/12 08:02:02;;;;;;;4.18;1.50;;;19.60;96.70;;;;;;4964364;28;20069;-74
2023/05/12 08:04:30;;;;;;;6.38;1.33;;;19.60;96.70;;;;;;4963559;28;20053;-74
2023/05/12 08:06:59;;;;;;;3.75;1.40;;;19.50;96.70;;;;;;4947259;28;20500;-73
2023/05/12 08:09:27;;;;;;;4.75;1.88;;;19.50;96.70;;;;;;4960365;28;20070;-74
2023/05/12 08:11:57;;;;;;;4.13;1.60;;;19.70;96.70;;;;;;4962672;28;20051;-73
2023/05/12 08:14:25;;;;;;;6.10;1.45;;;19.90;96.70;;;;;;4964274;28;20065;-73
2023/05/12 08:16:54;;;;;;;6.22;1.92;;;20.00;96.70;;;;;;4962858;28;20062;-74
2023/05/12 08:19:22;;;;;;;4.43;1.52;;;20.10;96.70;;;;;;4962664;28;20050;-74
2023/05/12 08:21:51;;;;;;;3.95;1.67;;;19.90;96.70;;;;;;4964019;28;20046;-73
2023/05/12 08:24:20;;;;;;;6.38;1.60;;;19.80;96.70;;;;;;4953368;28;20098;-73
2023/05/12 08:26:49;;;;;;;4.28;1.23;;;19.90;96.70;;;;;;4962753;28;20054;-74
2023/05/12 08:29:19;;;;;;;7.78;1.85;;;20.10;96.70;;;;;;4962743;28;20063;-73
2023/05/12 08:31:47;;;;;;;5.63;1.70;;;20.20;96.70;;;;;;4962533;28;20093;-75
2023/05/12 08:34:16;;;;;;;5.18;1.30;;;20.20;96.70;;;;;;4963897;28;20047;-73
2023/05/12 08:36:45;;;;;;;4.15;1.50;;;20.30;96.70;;;;;;4962507;28;20077;-74
2023/05/12 08:39:13;;;;;;;5.20;1.80;;;20.30;96.70;;;;;;4961410;28;20031;-74
2023/05/12 08:41:45;;;;;;;3.40;1.13;;;20.30;96.70;;;;;;4962010;28;20054;-74
2023/05/12 08:44:15;;;;;;;6.03;1.63;;;20.50;96.70;;;;;;4963454;28;20853;-73
2023/05/12 08:46:46;;;;;;;6.38;1.20;;;20.70;96.70;;;;;;4964089;28;20059;-74
2023/05/12 08:49:19;;;;;;;3.70;1.20;;;20.70;96.70;;;;;;4962655;28;20130;-74
2023/05/12 08:51:52;;;;;;;5.07;1.60;;;20.80;96.70;;;;;;4963617;28;20051;-74
2023/05/12 08:54:27;;;;;;;6.60;1.60;;;20.80;96.70;;;;;;4962806;28;20042;-76
2023/05/12 08:56:56;;;;;;;2.95;1.27;;;20.90;96.70;;;;;;4963770;28;20059;-74
2023/05/12 08:59:27;;;;;;;4.15;1.10;;;21.00;96.70;;;;;;4962345;28;20053;-74
2023/05/12 09:01:58;;;;;;;8.05;1.45;;;21.10;96.70;;;;;;4952963;28;20094;-74
2023/05/12 09:04:27;;;;;;;5.68;1.80;;;21.10;96.70;;;;;;4962909;28;20046;-74
2023/05/12 09:06:57;;;;;;;6.00;1.35;;;21.10;96.70;;;;;;4961427;28;20039;-73
2023/05/12 09:09:28;;;;;;;6.55;1.40;;;21.20;96.70;;;;;;4956642;28;20061;-74
2023/05/12 09:11:57;;;;;;;9.82;1.70;;;21.40;96.70;;;;;;4962408;28;20609;-73
2023/05/12 09:14:28;;;;;;;8.30;1.60;;;21.70;96.70;;;;;;4963631;28;20138;-74
2023/05/12 09:17:01;;;;;;;9.43;1.80;;;21.80;96.70;;;;;;4962345;28;20051;-74
2023/05/12 09:19:30;;;;;;;8.00;1.75;;;21.80;96.70;;;;;;4959910;28;20061;-74
2023/05/12 09:21:59;;;;;;;6.75;1.77;;;21.70;96.70;;;;;;4961722;28;20046;-73
2023/05/12 09:24:34;;;;;;;6.00;1.92;;;21.60;96.70;;;;;;4963519;28;20054;-73
2023/05/12 09:27:03;;;;;;;9.25;2.20;;;21.50;96.70;;;;;;4963836;28;20074;-73
2023/05/12 09:29:32;;;;;;;8.02;2.10;;;21.30;96.70;;;;;;4962203;28;20078;-74
2023/05/12 09:32:10;;;;;;;5.80;1.48;;;21.20;96.70;;;;;;4960454;28;20057;-73
2023/05/12 09:34:39;;;;;;;4.28;1.55;;;21.10;96.70;;;;;;4967533;28;20035;-73
2023/05/12 09:37:08;;;;;;;7.82;2.30;;;21.20;96.70;;;;;;4965654;28;20097;-73
2023/05/12 09:39:36;;;;;;;6.18;1.90;;;21.20;96.70;;;;;;4966817;28;20059;-72
2023/05/12 09:42:11;;;;;;;7.80;1.48;;;21.40;96.70;;;;;;4966499;28;20054;-73
2023/05/12 09:44:40;;;;;;;5.20;1.88;;;21.50;96.70;;;;;;4966973;28;20078;-73
2023/05/12 09:47:09;;;;;;;6.05;1.45;;;21.50;96.70;;;;;;4966867;28;20134;-73
2023/05/12 09:49:44;;;;;;;6.82;1.80;;;21.60;96.70;;;;;;4965625;28;20061;-73
2023/05/12 09:52:12;;;;;;;6.05;1.63;;;21.70;96.70;;;;;;4964395;28;20051;-73
2023/05/12 09:54:40;;;;;;;6.30;1.60;;;21.80;96.70;;;;;;4966419;28;20125;-73
2023/05/12 09:57:13;;;;;;;3.80;1.45;;;22.00;96.70;;;;;;4981617;28;20054;-73
2023/05/12 09:59:43;;;;;;;7.78;1.20;;;22.00;96.70;;;;;;4966749;28;20054;-73
2023/05/12 10:02:15;;;;;;;4.53;1.40;;;22.00;96.70;;;;;;4966754;28;20073;-73
2023/05/12 10:04:46;;;;;;;8.93;1.42;;;22.00;96.70;;;;;;4966532;28;20501;-73
2023/05/12 10:07:17;;;;;;;7.82;1.65;;;21.90;96.70;;;;;;4965206;28;20159;-73
2023/05/12 10:09:47;;;;;;;5.53;1.55;;;21.70;96.70;;;;;;4966447;28;20043;-73
2023/05/12 10:12:16;;;;;;;3.95;1.35;;;21.60;96.70;;;;;;4948967;28;20054;-73
2023/05/12 10:14:45;;;;;;;7.10;1.60;;;21.30;96.70;;;;;;4966518;28;20097;-73
2023/05/12 10:17:15;;;;;;;8.38;1.65;;;21.00;96.70;;;;;;4965849;28;20163;-73
2023/05/12 10:19:45;;;;;;;6.03;1.25;;;20.80;96.70;;;;;;4964896;28;20758;-73
2023/05/12 10:22:16;;;;;;;5.10;0.98;;;20.10;96.70;;;;;;4963515;28;20555;-73
2023/05/12 10:24:45;;;;;;;7.25;0.80;;;19.10;96.70;;;;;;4963199;28;20058;-73
2023/05/12 10:27:16;;;;;;;1.52;0.50;;;18.40;96.70;;;;;;4965032;28;20467;-73
2023/05/12 10:29:45;;;;;;;3.03;0.32;;;17.70;96.70;;;;;;4965201;28;20038;-73
2023/05/12 10:32:15;;;;;;;1.02;0.30;;;17.20;96.70;;;;;;4959731;28;20960;-73
2023/05/12 10:34:43;;;;;;;1.58;0.28;;;16.90;96.70;;;;;;4963007;28;20049;-72
2023/05/12 10:37:12;;;;;;;3.30;0.60;;;16.70;96.70;;;;;;4964840;28;20062;-74
2023/05/12 10:39:46;;;;;;;3.20;0.50;;;16.60;96.70;;;;;;4963739;28;20058;-74
2023/05/12 10:42:19;;;;;;;0.82;0.20;;;16.40;96.70;;;;;;4965314;28;20125;-73
2023/05/12 10:44:50;;;;;;;2.75;0.35;;;16.40;96.70;;;;;;4963360;28;20054;-73
2023/05/12 10:47:25;;;;;;;1.90;0.28;;;16.40;96.70;;;;;;4965668;28;20512;-73
2023/05/12 10:49:58;;;;;;;0.95;0.30;;;16.20;96.70;;;;;;4965853;28;20469;-73
2023/05/12 10:52:26;;;;;;;1.77;0.30;;;15.90;96.70;;;;;;4962864;28;20428;-72
2023/05/12 10:55:00;;;;;;;0.93;0.40;;;15.70;96.70;;;;;;4965563;28;20051;-72
2023/05/12 10:57:29;;;;;;;3.95;0.77;;;15.70;96.70;;;;;;4965254;28;20070;-72
2023/05/12 10:59:59;;;;;;;3.13;0.40;;;15.70;96.70;;;;;;4962810;28;20579;-73
2023/05/12 11:02:33;;;;;;;3.28;0.40;;;15.60;96.70;;;;;;4961795;28;20062;-73
2023/05/12 11:05:10;;;;;;;1.33;0.30;;;15.60;96.70;;;;;;4963907;28;20046;-73
2023/05/12 11:07:45;;;;;;;2.55;0.20;;;15.50;96.70;;;;;;4965534;28;20125;-73
2023/05/12 11:10:13;;;;;;;11.27;1.73;;;15.50;96.70;;;;;;4965516;28;20730;-73
2023/05/12 11:12:43;;;;;;;12.27;2.67;;;15.70;96.70;;;;;;4964787;28;20133;-73
2023/05/12 11:15:12;;;;;;;17.30;2.88;;;15.90;96.70;;;;;;4957383;28;20053;-73
2023/05/12 11:17:43;;;;;;;9.77;1.85;;;16.20;96.70;;;;;;4962542;28;20058;-73
2023/05/12 11:20:22;;;;;;;4.30;0.88;;;16.30;96.70;;;;;;4963635;28;20054;-73
2023/05/12 11:22:50;;;;;;;2.80;1.13;;;16.60;96.70;;;;;;4964929;28;20046;-73
2023/05/12 11:25:18;;;;;;;2.08;0.30;;;16.60;96.70;;;;;;4962978;28;20047;-73
2023/05/12 11:27:47;;;;;;;1.55;0.40;;;16.60;96.70;;;;;;4965093;28;20055;-73
2023/05/12 11:30:19;;;;;;;2.10;0.50;;;16.60;96.70;;;;;;4956692;28;20047;-74
2023/05/12 11:32:59;;;;;;;1.38;0.70;;;16.90;96.70;;;;;;4960556;28;20042;-74
2023/05/12 11:35:30;;;;;;;1.52;0.50;;;17.00;96.70;;;;;;4961259;28;20051;-73
2023/05/12 11:37:59;;;;;;;3.72;0.50;;;17.00;96.70;;;;;;4963560;28;21193;-74
2023/05/12 11:40:27;;;;;;;1.20;0.50;;;17.00;96.70;;;;;;4963470;28;20058;-73
2023/05/12 11:42:55;;;;;;;3.08;0.85;;;17.00;96.70;;;;;;4965320;28;20468;-73
2023/05/12 11:45:25;;;;;;;2.63;0.75;;;17.20;96.70;;;;;;4963603;28;20047;-73
2023/05/12 11:48:06;;;;;;;1.55;0.50;;;17.40;96.70;;;;;;4944757;28;20512;-73
2023/05/12 11:50:37;;;;;;;5.25;0.80;;;17.50;96.70;;;;;;4962209;28;20117;-73
2023/05/12 11:53:09;;;;;;;2.38;0.82;;;17.60;96.70;;;;;;4961462;28;20531;-73
2023/05/12 11:55:47;;;;;;;2.95;0.80;;;17.80;96.70;;;;;;4961856;28;20520;-74
2023/05/12 11:58:23;;;;;;;3.08;0.88;;;17.90;96.70;;;;;;4962345;28;20050;-73
2023/05/12 12:00:51;;;;;;;2.95;0.80;;;18.30;96.70;;;;;;4964829;28;20049;-73
2023/05/12 12:03:24;;;;;;;2.65;0.80;;;18.50;96.70;;;;;;4961328;28;20073;-73
2023/05/12 12:06:00;;;;;;;3.03;0.80;;;18.70;96.70;;;;;;4964349;28;20074;-73
2023/05/12 12:08:28;;;;;;;1.58;0.65;;;19.00;96.70;;;;;;4960916;28;20045;-73
2023/05/12 12:10:56;;;;;;;4.25;0.88;;;19.40;96.70;;;;;;4964655;28;20121;-74
2023/05/12 12:13:25;;;;;;;1.60;0.70;;;19.60;96.70;;;;;;4964908;28;20117;-73
2023/05/12 12:15:53;;;;;;;3.13;1.00;;;19.70;96.70;;;;;;4963225;28;20584;-73
2023/05/12 12:18:22;;;;;;;3.45;0.80;;;19.80;96.70;;;;;;4953905;28;20166;-72
2023/05/12 12:20:51;;;;;;;1.67;0.70;;;20.00;96.70;;;;;;4941091;28;20047;-72
2023/05/12 12:23:19;;;;;;;3.00;0.70;;;20.30;96.70;;;;;;4963961;28;20137;-73
2023/05/12 12:25:47;;;;;;;2.58;0.65;;;20.30;96.70;;;;;;4963760;28;20053;-74
2023/05/12 12:28:15;;;;;;;1.17;0.40;;;20.30;96.70;;;;;;4964042;28;20592;-73
2023/05/12 12:30:43;;;;;;;1.58;0.60;;;20.70;96.70;;;;;;4963993;28;20047;-73
2023/05/12 12:33:11;;;;;;;2.03;0.82;;;20.80;96.70;;;;;;4962810;28;20533;-74
2023/05/12 12:35:42;;;;;;;3.33;0.57;;;20.60;96.70;;;;;;4963810;28;20508;-73
2023/05/12 12:38:10;;;;;;;1.98;0.70;;;20.70;96.70;;;;;;4963656;28;20536;-73
2023/05/12 12:40:38;;;;;;;1.00;0.43;;;20.80;96.70;;;;;;4961751;28;20126;-73
2023/05/12 12:43:06;;;;;;;1.95;0.70;;;20.90;96.70;;;;;;4962834;28;20043;-73
2023/05/12 12:45:34;;;;;;;3.22;0.55;;;21.00;96.70;;;;;;4961973;28;20047;-73
2023/05/12 12:48:02;;;;;;;2.50;0.63;;;21.00;96.70;;;;;;4962894;28;20057;-73
2023/05/12 12:50:31;;;;;;;3.35;0.80;;;20.90;96.70;;;;;;4959838;28;20547;-73
2023/05/12 12:53:01;;;;;;;2.70;0.80;;;20.90;96.70;;;;;;4963657;28;20055;-73
2023/05/12 12:55:29;;;;;;;1.70;0.60;;;20.80;96.70;;;;;;4963224;28;20051;-74
2023/05/12 12:57:57;;;;;;;2.03;0.50;;;20.60;96.70;;;;;;4960999;28;20054;-73
2023/05/12 13:00:26;;;;;;;1.88;0.60;;;20.50;96.70;;;;;;4964656;28;20039;-73
2023/05/12 13:02:54;;;;;;;2.40;0.90;;;20.40;96.70;;;;;;4959589;28;20490;-73
2023/05/12 13:05:24;;;;;;;4.93;0.70;;;20.40;96.70;;;;;;4949854;28;20141;-73
2023/05/12 13:07:52;;;;;;;1.50;0.55;;;20.30;96.70;;;;;;4967223;28;20051;-73
2023/05/12 13:10:22;;;;;;;1.77;0.60;;;20.30;96.70;;;;;;4967645;28;20043;-73
2023/05/12 13:12:50;;;;;;;1.63;0.60;;;20.40;96.70;;;;;;4967586;28;20039;-73
2023/05/12 13:15:19;;;;;;;2.17;0.50;;;20.40;96.70;;;;;;4950059;28;20046;-73
2023/05/12 13:17:48;;;;;;;1.55;0.40;;;20.40;96.70;;;;;;4966998;28;20134;-73
2023/05/12 13:20:16;;;;;;;6.20;0.50;;;20.40;96.70;;;;;;4964624;28;20100;-73
2023/05/12 13:22:45;;;;;;;1.13;0.30;;;20.50;96.70;;;;;;4966836;28;20047;-73
2023/05/12 13:25:14;;;;;;;1.55;0.40;;;20.70;96.70;;;;;;4966636;28;20042;-73
2023/05/12 13:27:44;;;;;;;2.65;0.40;;;21.10;96.70;;;;;;4964513;28;20508;-73
2023/05/12 13:30:12;;;;;;;2.75;0.40;;;21.50;96.70;;;;;;4965333;28;20043;-73
2023/05/12 13:32:41;;;;;;;1.25;0.30;;;21.90;96.70;;;;;;4956565;28;20051;-73
2023/05/12 13:35:09;;;;;;;2.00;0.40;;;22.30;96.70;;;;;;4956072;28;20085;-73
2023/05/12 13:37:38;;;;;;;1.50;0.30;;;22.80;96.70;;;;;;4964375;28;20424;-73
2023/05/12 13:40:08;;;;;;;1.35;0.40;;;23.40;96.70;;;;;;4955507;28;20047;-74
2023/05/12 13:42:37;;;;;;;1.42;0.30;;;23.70;96.70;;;;;;4959021;28;20046;-73
2023/05/12 13:45:09;;;;;;;3.80;0.43;;;23.90;96.70;;;;;;4965438;28;20049;-73
2023/05/12 13:47:37;;;;;;;1.17;0.30;;;24.30;96.70;;;;;;4967403;28;20053;-73
2023/05/12 13:50:07;;;;;;;1.48;0.32;;;24.60;96.70;;;;;;4965010;28;20058;-73
2023/05/12 13:52:36;;;;;;;2.95;0.43;;;24.90;96.70;;;;;;4965687;28;20104;-73
2023/05/12 13:55:05;;;;;;;1.38;0.25;;;25.10;96.70;;;;;;4958125;28;20042;-73
2023/05/12 13:57:33;;;;;;;1.48;0.45;;;25.40;96.70;;;;;;4966387;28;20069;-73
2023/05/12 14:00:02;;;;;;;3.40;0.32;;;25.70;96.70;;;;;;4966604;28;20082;-73
2023/05/12 14:02:33;;;;;;;2.17;0.40;;;25.80;96.70;;;;;;4963977;28;20058;-74
2023/05/12 14:05:01;;;;;;;1.58;0.40;;;26.20;96.70;;;;;;4965779;28;20050;-74
2023/05/12 14:07:30;;;;;;;2.30;0.60;;;26.50;96.70;;;;;;4965728;28;20042;-73
2023/05/12 14:09:59;;;;;;;2.03;0.40;;;26.60;96.70;;;;;;4963984;28;20409;-72
2023/05/12 14:12:27;;;;;;;1.63;0.45;;;26.90;96.70;;;;;;4965517;28;20042;-73
2023/05/12 14:14:56;;;;;;;2.35;0.47;;;26.50;96.70;;;;;;4966775;28;20390;-73
2023/05/12 14:17:40;;;;;;;3.20;0.73;;;26.40;96.70;;;;;;4964299;28;20074;-73
2023/05/12 14:20:10;;;;;;;0.95;0.40;;;26.80;96.70;;;;;;4966344;28;20459;-73
2023/05/12 14:22:38;;;;;;;1.08;0.40;;;26.00;96.70;;;;;;4966134;28;20046;-73
2023/05/12 14:25:08;;;;;;;0.73;0.30;;;25.30;96.70;;;;;;4964060;28;20125;-73
2023/05/12 14:27:36;;;;;;;2.00;0.40;;;24.80;96.70;;;;;;4963632;28;20046;-73
2023/05/12 14:30:06;;;;;;;2.90;0.57;;;24.30;96.70;;;;;;4961339;28;20137;-73
2023/05/12 14:32:34;;;;;;;1.70;0.30;;;24.10;96.70;;;;;;4965593;28;20044;-73
2023/05/12 14:35:05;;;;;;;2.10;0.45;;;23.60;96.70;;;;;;4965704;28;20054;-73
2023/05/12 14:37:36;;;;;;;3.90;0.60;;;23.30;96.70;;;;;;4965751;28;20047;-73
2023/05/12 14:40:06;;;;;;;1.52;0.50;;;23.00;96.70;;;;;;4965674;28;20045;-72
2023/05/12 14:42:34;;;;;;;1.00;0.40;;;22.80;96.70;;;;;;4965463;28;20038;-73
2023/05/12 14:45:03;;;;;;;2.97;0.47;;;22.80;96.70;;;;;;4961625;28;20047;-73
2023/05/12 14:47:32;;;;;;;1.63;0.40;;;22.80;96.70;;;;;;4964160;28;20532;-73
2023/05/12 14:50:00;;;;;;;2.33;0.57;;;23.80;96.70;;;;;;4965804;28;20049;-72
2023/05/12 14:52:36;;;;;;;1.88;0.70;;;24.10;96.70;;;;;;4964592;28;20523;-73
2023/05/12 14:55:10;;;;;;;1.55;0.60;;;24.70;96.70;;;;;;4965570;28;20046;-73
2023/05/12 14:57:40;;;;;;;2.45;0.50;;;26.00;96.70;;;;;;4932231;28;20047;-73
2023/05/12 15:00:09;;;;;;;2.70;0.60;;;26.60;96.70;;;;;;4958290;28;20061;-73
2023/05/12 15:02:38;;;;;;;2.05;0.60;;;26.30;96.70;;;;;;4965162;28;20050;-73
2023/05/12 15:05:08;;;;;;;1.95;0.63;;;26.30;96.70;;;;;;4965040;28;20165;-74
2023/05/12 15:07:38;;;;;;;1.90;0.47;;;25.40;96.70;;;;;;4965225;28;20412;-74
2023/05/12 15:10:07;;;;;;;2.05;0.40;;;24.50;96.70;;;;;;4961322;28;20516;-73
2023/05/12 15:12:35;;;;;;;1.15;0.40;;;23.90;96.70;;;;;;4965211;28;20056;-73
2023/05/12 15:15:07;;;;;;;1.92;0.50;;;23.30;96.70;;;;;;4965404;28;20125;-72
2023/05/12 15:17:36;;;;;;;3.22;0.77;;;23.00;96.70;;;;;;4965582;28;20130;-73
2023/05/12 15:20:05;;;;;;;2.60;0.43;;;22.70;96.70;;;;;;4964918;28;20579;-73
2023/05/12 15:22:35;;;;;;;2.42;0.60;;;22.30;96.70;;;;;;4963172;28;20047;-73
2023/05/12 15:25:07;;;;;;;3.42;0.60;;;22.10;96.70;;;;;;4964564;28;20042;-72
2023/05/12 15:27:35;;;;;;;1.33;0.52;;;21.70;96.70;;;;;;4965173;28;20505;-73
2023/05/12 15:30:05;;;;;;;3.67;0.93;;;21.40;96.70;;;;;;4964823;28;20042;-73
2023/05/12 15:32:34;;;;;;;2.28;0.60;;;21.00;96.70;;;;;;4963514;28;20046;-73
2023/05/12 15:35:03;;;;;;;1.58;0.40;;;20.90;96.70;;;;;;4961074;28;20048;-73
2023/05/12 15:37:31;;;;;;;3.03;0.68;;;21.00;96.70;;;;;;4964734;28;20047;-73
2023/05/12 15:40:00;;;;;;;2.58;0.80;;;20.90;96.70;;;;;;4965106;28;20133;-73
2023/05/12 15:42:30;;;;;;;1.05;0.57;;;20.80;96.70;;;;;;4957521;28;20413;-73
2023/05/12 15:45:00;;;;;;;2.15;0.70;;;20.70;96.70;;;;;;4960186;28;20580;-72
2023/05/12 15:47:29;;;;;;;1.85;0.70;;;20.60;96.70;;;;;;4956512;28;20441;-73
2023/05/12 15:49:57;;;;;;;3.58;0.82;;;20.50;96.70;;;;;;4962794;28;20054;-73
2023/05/12 15:52:26;;;;;;;3.00;0.65;;;20.40;96.70;;;;;;4964645;28;20043;-73
2023/05/12 15:54:55;;;;;;;2.97;0.70;;;20.40;96.70;;;;;;4974336;28;20523;-73
2023/05/12 15:57:23;;;;;;;1.70;0.60;;;20.40;96.70;;;;;;4964212;28;20764;-74
2023/05/12 15:59:58;;;;;;;2.10;0.60;;;20.30;96.70;;;;;;4964398;28;20105;-72
2023/05/12 16:02:27;;;;;;;1.67;0.50;;;20.00;96.70;;;;;;4946516;28;20505;-73
2023/05/12 16:04:55;;;;;;;2.08;0.50;;;19.70;96.70;;;;;;4963777;28;20697;-73
2023/05/12 16:07:28;;;;;;;5.65;0.82;;;19.40;96.70;;;;;;4964226;28;20042;-73